sensor_id;sensor_type;location;lat;lon;timestamp;pressure;altitude;pressure_sealevel;temperature;humidity
61757;BME280;57225;61.460;24.060;2023-05-03T00:01:21;99846.06;;;0.42;100.00
61757;BME280;57225;61.460;24.060;2023-05-03T00:04:05;99865.72;;;0.56;100.00
61757;BME280;57225;61.460;24.060;2023-05-03T00:06:50;99886.75;;;0.64;100.00
61757;BME280;57225;61.460;24.060;2023-05-03T00:09:34;99884.00;;;0.64;100.00
61757;BME280;57225;61.460;24.060;2023-05-03T00:12:19;99860.59;;;0.42;100.00
61757;BME280;57225;61.460;24.060;2023-05-03T00:15:04;99892.34;;;0.55;100.00
61757;BME280;57225;61.460;24.060;2023-05-03T00:17:49;99902.50;;;0.55;100.00
61757;BME280;57225;61.460;24.060;2023-05-03T00:20:33;99902.50;;;0.55;100.00
61757;BME280;57225;61.460;24.060;2023-05-03T00:23:42;99905.34;;;0.58;100.00
61757;BME280;57225;61.460;24.060;2023-05-03T00:26:29;99904.56;;;0.58;100.00
61757;BME280;57225;61.460;24.060;2023-05-03T00:29:14;99908.47;;;0.57;100.00
61757;BME280;57225;61.460;24.060;2023-05-03T00:31:59;99904.13;;;0.56;100.00
61757;BME280;57225;61.460;24.060;2023-05-03T00:34:45;99908.81;;;0.55;100.00
61757;BME280;57225;61.460;24.060;2023-05-03T00:37:29;99916.91;;;0.64;100.00
61757;BME280;57225;61.460;24.060;2023-05-03T00:40:14;99905.91;;;0.52;100.00
61757;BME280;57225;61.460;24.060;2023-05-03T00:43:02;99918.28;;;0.58;100.00
61757;BME280;57225;61.460;24.060;2023-05-03T00:45:47;99905.09;;;0.39;100.00
61757;BME280;57225;61.460;24.060;2023-05-03T00:48:33;99926.06;;;0.56;100.00
61757;BME280;57225;61.460;24.060;2023-05-03T00:51:19;99928.56;;;0.49;100.00
61757;BME280;57225;61.460;24.060;2023-05-03T00:54:05;99915.06;;;0.31;100.00
61757;BME280;57225;61.460;24.060;2023-05-03T00:56:49;99941.22;;;0.41;100.00
61757;BME280;57225;61.460;24.060;2023-05-03T00:59:33;99939.94;;;0.38;100.00
61757;BME280;57225;61.460;24.060;2023-05-03T01:02:18;99927.47;;;0.29;100.00
61757;BME280;57225;61.460;24.060;2023-05-03T01:05:03;99953.88;;;0.33;100.00
61757;BME280;57225;61.460;24.060;2023-05-03T01:08:01;99960.63;;;0.36;100.00
61757;BME280;57225;61.460;24.060;2023-05-03T01:11:07;99958.91;;;0.31;100.00
61757;BME280;57225;61.460;24.060;2023-05-03T01:14:13;99959.81;;;0.35;100.00
61757;BME280;57225;61.460;24.060;2023-05-03T01:17:13;99969.88;;;0.31;100.00
61757;BME280;57225;61.460;24.060;2023-05-03T01:20:04;99969.06;;;0.31;100.00
61757;BME280;57225;61.460;24.060;2023-05-03T01:25:42;99971.44;;;0.32;100.00
61757;BME280;57225;61.460;24.060;2023-05-03T01:28:26;99973.06;;;0.33;100.00
61757;BME280;57225;61.460;24.060;2023-05-03T01:31:21;99957.59;;;0.17;100.00
61757;BME280;57225;61.460;24.060;2023-05-03T01:36:57;99984.34;;;0.32;100.00
61757;BME280;57225;61.460;24.060;2023-05-03T01:40:00;99991.78;;;0.31;100.00
61757;BME280;57225;61.460;24.060;2023-05-03T01:42:46;99987.00;;;0.40;100.00
61757;BME280;57225;61.460;24.060;2023-05-03T01:45:31;99969.63;;;0.24;100.00
61757;BME280;57225;61.460;24.060;2023-05-03T01:48:17;99992.72;;;0.35;100.00
61757;BME280;57225;61.460;24.060;2023-05-03T01:51:02;99992.13;;;0.30;100.00
61757;BME280;57225;61.460;24.060;2023-05-03T01:53:47;100002.06;;;0.34;100.00
61757;BME280;57225;61.460;24.060;2023-05-03T01:56:34;99993.81;;;0.22;100.00
61757;BME280;57225;61.460;24.060;2023-05-03T01:59:19;100005.03;;;0.29;100.00
61757;BME280;57225;61.460;24.060;2023-05-03T02:02:04;100000.22;;;0.26;100.00
61757;BME280;57225;61.460;24.060;2023-05-03T02:04:48;100004.28;;;0.20;100.00
61757;BME280;57225;61.460;24.060;2023-05-03T02:07:32;100002.34;;;0.21;100.00
61757;BME280;57225;61.460;24.060;2023-05-03T02:10:17;100006.06;;;0.25;100.00
61757;BME280;57225;61.460;24.060;2023-05-03T02:13:01;100009.56;;;0.25;100.00
61757;BME280;57225;61.460;24.060;2023-05-03T02:15:46;100005.25;;;0.24;100.00
61757;BME280;57225;61.460;24.060;2023-05-03T02:18:31;100015.72;;;0.22;100.00
61757;BME280;57225;61.460;24.060;2023-05-03T02:21:16;100007.84;;;0.21;100.00
61757;BME280;57225;61.460;24.060;2023-05-03T02:24:01;100022.94;;;0.27;100.00
61757;BME280;57225;61.460;24.060;2023-05-03T02:26:45;100017.44;;;0.27;100.00
61757;BME280;57225;61.460;24.060;2023-05-03T02:29:30;100019.75;;;0.25;100.00
61757;BME280;57225;61.460;24.060;2023-05-03T02:32:14;100004.72;;;0.10;100.00
61757;BME280;57225;61.460;24.060;2023-05-03T02:34:59;100021.22;;;0.22;100.00
61757;BME280;57225;61.460;24.060;2023-05-03T02:37:44;100023.25;;;0.25;100.00
61757;BME280;57225;61.460;24.060;2023-05-03T02:40:28;100030.81;;;0.28;100.00
61757;BME280;57225;61.460;24.060;2023-05-03T02:43:13;100030.50;;;0.30;100.00
61757;BME280;57225;61.460;24.060;2023-05-03T02:45:58;100029.00;;;0.32;100.00
61757;BME280;57225;61.460;24.060;2023-05-03T02:48:42;100014.00;;;0.18;100.00
61757;BME280;57225;61.460;24.060;2023-05-03T02:51:27;100016.31;;;0.28;100.00
61757;BME280;57225;61.460;24.060;2023-05-03T02:54:11;100033.63;;;0.40;100.00
61757;BME280;57225;61.460;24.060;2023-05-03T02:56:56;100028.81;;;0.37;100.00
61757;BME280;57225;61.460;24.060;2023-05-03T02:59:40;100015.72;;;0.22;100.00
61757;BME280;57225;61.460;24.060;2023-05-03T03:02:24;100039.56;;;0.43;100.00
61757;BME280;57225;61.460;24.060;2023-05-03T03:05:09;100040.16;;;0.48;100.00
61757;BME280;57225;61.460;24.060;2023-05-03T03:07:53;100027.91;;;0.46;100.00
61757;BME280;57225;61.460;24.060;2023-05-03T03:10:38;100048.63;;;0.55;100.00
61757;BME280;57225;61.460;24.060;2023-05-03T03:13:23;100045.56;;;0.57;100.00
61757;BME280;57225;61.460;24.060;2023-05-03T03:16:08;100028.63;;;0.55;100.00
61757;BME280;57225;61.460;24.060;2023-05-03T03:18:53;100036.31;;;0.61;100.00
61757;BME280;57225;61.460;24.060;2023-05-03T03:21:37;100057.25;;;0.78;100.00
61757;BME280;57225;61.460;24.060;2023-05-03T03:24:22;100047.34;;;0.86;100.00
61757;BME280;57225;61.460;24.060;2023-05-03T03:27:06;100055.34;;;0.91;100.00
61757;BME280;57225;61.460;24.060;2023-05-03T03:29:51;100049.38;;;0.89;100.00
61757;BME280;57225;61.460;24.060;2023-05-03T03:32:35;100063.28;;;1.16;100.00
61757;BME280;57225;61.460;24.060;2023-05-03T03:35:20;100063.97;;;1.26;100.00
61757;BME280;57225;61.460;24.060;2023-05-03T03:38:05;100070.84;;;1.19;100.00
61757;BME280;57225;61.460;24.060;2023-05-03T03:40:49;100064.88;;;1.42;100.00
61757;BME280;57225;61.460;24.060;2023-05-03T03:43:35;100083.59;;;2.53;100.00
61757;BME280;57225;61.460;24.060;2023-05-03T03:46:19;100083.69;;;2.72;100.00
61757;BME280;57225;61.460;24.060;2023-05-03T03:49:04;100087.75;;;2.34;100.00
61757;BME280;57225;61.460;24.060;2023-05-03T03:51:48;100083.03;;;2.07;100.00
61757;BME280;57225;61.460;24.060;2023-05-03T03:54:33;100087.53;;;1.87;100.00
61757;BME280;57225;61.460;24.060;2023-05-03T03:57:18;100085.38;;;1.81;100.00
61757;BME280;57225;61.460;24.060;2023-05-03T04:00:03;100083.97;;;1.87;100.00
61757;BME280;57225;61.460;24.060;2023-05-03T04:02:53;100083.97;;;1.87;100.00
61757;BME280;57225;61.460;24.060;2023-05-03T04:05:38;100089.00;;;1.85;100.00
61757;BME280;57225;61.460;24.060;2023-05-03T04:08:22;100088.88;;;2.06;100.00
61757;BME280;57225;61.460;24.060;2023-05-03T04:11:10;100094.63;;;2.00;100.00
61757;BME280;57225;61.460;24.060;2023-05-03T04:13:57;100087.97;;;2.01;100.00
61757;BME280;57225;61.460;24.060;2023-05-03T04:16:42;100096.63;;;2.16;100.00
61757;BME280;57225;61.460;24.060;2023-05-03T04:19:27;100094.03;;;2.07;100.00
61757;BME280;57225;61.460;24.060;2023-05-03T04:22:11;100101.69;;;2.14;100.00
61757;BME280;57225;61.460;24.060;2023-05-03T04:24:56;100104.66;;;2.21;100.00
61757;BME280;57225;61.460;24.060;2023-05-03T04:27:40;100105.75;;;2.32;100.00
61757;BME280;57225;61.460;24.060;2023-05-03T04:30:25;100093.69;;;2.76;100.00
61757;BME280;57225;61.460;24.060;2023-05-03T04:33:10;100108.38;;;3.12;100.00
61757;BME280;57225;61.460;24.060;2023-05-03T04:35:54;100080.66;;;3.05;100.00
61757;BME280;57225;61.460;24.060;2023-05-03T04:38:39;100118.53;;;3.23;100.00
61757;BME280;57225;61.460;24.060;2023-05-03T04:41:24;100115.59;;;3.32;100.00
61757;BME280;57225;61.460;24.060;2023-05-03T04:44:09;100122.53;;;3.57;100.00
61757;BME280;57225;61.460;24.060;2023-05-03T04:46:53;100125.75;;;4.64;100.00
61757;BME280;57225;61.460;24.060;2023-05-03T04:49:38;100130.19;;;7.65;82.73
61757;BME280;57225;61.460;24.060;2023-05-03T04:52:25;100128.16;;;10.99;64.75
61757;BME280;57225;61.460;24.060;2023-05-03T04:55:10;100135.19;;;14.33;55.15
61757;BME280;57225;61.460;24.060;2023-05-03T04:57:54;100148.28;;;16.39;47.56
61757;BME280;57225;61.460;24.060;2023-05-03T05:00:41;100136.59;;;16.86;45.05
61757;BME280;57225;61.460;24.060;2023-05-03T05:03:26;100138.31;;;17.63;43.41
61757;BME280;57225;61.460;24.060;2023-05-03T05:06:10;100158.78;;;18.27;42.49
61757;BME280;57225;61.460;24.060;2023-05-03T05:08:55;100165.75;;;18.35;42.22
61757;BME280;57225;61.460;24.060;2023-05-03T05:11:40;100168.63;;;17.72;41.53
61757;BME280;57225;61.460;24.060;2023-05-03T05:14:29;100156.31;;;16.70;43.92
61757;BME280;57225;61.460;24.060;2023-05-03T05:17:13;100168.78;;;15.00;47.75
61757;BME280;57225;61.460;24.060;2023-05-03T05:19:58;100148.75;;;13.65;50.28
61757;BME280;57225;61.460;24.060;2023-05-03T05:22:42;100172.16;;;12.49;54.41
61757;BME280;57225;61.460;24.060;2023-05-03T05:25:27;100158.16;;;11.53;56.46
61757;BME280;57225;61.460;24.060;2023-05-03T05:28:11;100176.44;;;10.78;59.34
61757;BME280;57225;61.460;24.060;2023-05-03T05:30:56;100176.50;;;10.53;59.89
61757;BME280;57225;61.460;24.060;2023-05-03T05:33:40;100168.94;;;9.61;62.98
61757;BME280;57225;61.460;24.060;2023-05-03T05:36:25;100173.97;;;9.06;66.66
61757;BME280;57225;61.460;24.060;2023-05-03T05:39:09;100183.72;;;8.65;69.41
61757;BME280;57225;61.460;24.060;2023-05-03T05:41:55;100182.94;;;8.13;69.31
61757;BME280;57225;61.460;24.060;2023-05-03T05:44:39;100182.50;;;8.11;72.12
61757;BME280;57225;61.460;24.060;2023-05-03T05:47:24;100180.03;;;7.55;73.51
61757;BME280;57225;61.460;24.060;2023-05-03T05:50:09;100172.88;;;7.50;75.10
61757;BME280;57225;61.460;24.060;2023-05-03T05:52:54;100186.22;;;7.41;74.49
61757;BME280;57225;61.460;24.060;2023-05-03T05:55:38;100177.44;;;7.32;73.42
61757;BME280;57225;61.460;24.060;2023-05-03T05:58:23;100185.06;;;7.09;73.67
61757;BME280;57225;61.460;24.060;2023-05-03T06:01:07;100170.03;;;7.10;74.64
61757;BME280;57225;61.460;24.060;2023-05-03T06:03:52;100191.22;;;7.62;76.56
61757;BME280;57225;61.460;24.060;2023-05-03T06:06:37;100186.94;;;7.35;75.87
61757;BME280;57225;61.460;24.060;2023-05-03T06:09:22;100187.53;;;7.14;75.06
61757;BME280;57225;61.460;24.060;2023-05-03T06:12:06;100194.88;;;7.33;75.15
61757;BME280;57225;61.460;24.060;2023-05-03T06:14:51;100200.97;;;7.12;76.37
61757;BME280;57225;61.460;24.060;2023-05-03T06:17:35;100199.03;;;7.16;74.44
61757;BME280;57225;61.460;24.060;2023-05-03T06:20:20;100197.44;;;7.52;75.79
61757;BME280;57225;61.460;24.060;2023-05-03T06:23:30;100202.06;;;7.78;73.19
61757;BME280;57225;61.460;24.060;2023-05-03T06:26:23;100206.03;;;7.77;70.29
61757;BME280;57225;61.460;24.060;2023-05-03T06:29:08;100188.94;;;7.75;73.47
61757;BME280;57225;61.460;24.060;2023-05-03T06:31:53;100192.25;;;7.87;71.79
61757;BME280;57225;61.460;24.060;2023-05-03T06:34:38;100214.44;;;8.31;69.32
61757;BME280;57225;61.460;24.060;2023-05-03T06:37:22;100199.13;;;8.55;70.34
61757;BME280;57225;61.460;24.060;2023-05-03T06:40:07;100206.97;;;8.39;69.21
61757;BME280;57225;61.460;24.060;2023-05-03T06:42:51;100186.44;;;8.61;69.39
61757;BME280;57225;61.460;24.060;2023-05-03T06:45:37;100211.16;;;8.80;68.07
61757;BME280;57225;61.460;24.060;2023-05-03T06:48:22;100229.94;;;8.36;63.45
61757;BME280;57225;61.460;24.060;2023-05-03T06:51:07;100233.34;;;8.73;64.96
61757;BME280;57225;61.460;24.060;2023-05-03T06:53:53;100239.81;;;8.88;68.03
61757;BME280;57225;61.460;24.060;2023-05-03T06:56:38;100230.41;;;9.17;65.96
61757;BME280;57225;61.460;24.060;2023-05-03T06:59:23;100233.34;;;9.53;65.67
61757;BME280;57225;61.460;24.060;2023-05-03T07:02:07;100233.81;;;9.97;64.00
61757;BME280;57225;61.460;24.060;2023-05-03T07:04:52;100246.59;;;10.20;64.48
61757;BME280;57225;61.460;24.060;2023-05-03T07:07:36;100230.66;;;10.27;62.55
61757;BME280;57225;61.460;24.060;2023-05-03T07:10:21;100253.75;;;10.60;61.00
61757;BME280;57225;61.460;24.060;2023-05-03T07:13:05;100263.28;;;10.69;60.15
61757;BME280;57225;61.460;24.060;2023-05-03T07:15:50;100242.59;;;10.56;57.53
61757;BME280;57225;61.460;24.060;2023-05-03T07:18:34;100263.66;;;10.82;59.17
61757;BME280;57225;61.460;24.060;2023-05-03T07:21:19;100267.28;;;10.68;60.19
61757;BME280;57225;61.460;24.060;2023-05-03T07:24:03;100270.84;;;10.79;60.03
61757;BME280;57225;61.460;24.060;2023-05-03T07:26:48;100263.28;;;10.80;58.52
61757;BME280;57225;61.460;24.060;2023-05-03T07:29:32;100270.84;;;10.69;56.31
61757;BME280;57225;61.460;24.060;2023-05-03T07:32:17;100251.31;;;10.86;58.12
61757;BME280;57225;61.460;24.060;2023-05-03T07:35:02;100272.81;;;10.75;56.06
61757;BME280;57225;61.460;24.060;2023-05-03T07:37:47;100261.63;;;10.97;56.31
61757;BME280;57225;61.460;24.060;2023-05-03T07:40:32;100276.31;;;11.15;57.00
61757;BME280;57225;61.460;24.060;2023-05-03T07:43:17;100264.88;;;10.74;50.93
61757;BME280;57225;61.460;24.060;2023-05-03T07:46:03;100285.16;;;10.99;57.00
61757;BME280;57225;61.460;24.060;2023-05-03T07:48:48;100289.13;;;10.87;51.75
61757;BME280;57225;61.460;24.060;2023-05-03T07:51:36;100289.19;;;10.59;51.40
61757;BME280;57225;61.460;24.060;2023-05-03T07:54:21;100272.41;;;10.13;51.94
61757;BME280;57225;61.460;24.060;2023-05-03T07:57:05;100292.69;;;10.06;53.75
61757;BME280;57225;61.460;24.060;2023-05-03T07:59:52;100300.31;;;10.27;51.93
61757;BME280;57225;61.460;24.060;2023-05-03T08:02:37;100305.06;;;10.20;53.89
61757;BME280;57225;61.460;24.060;2023-05-03T08:05:21;100288.75;;;10.18;52.41
61757;BME280;57225;61.460;24.060;2023-05-03T08:08:06;100284.00;;;10.47;54.92
61757;BME280;57225;61.460;24.060;2023-05-03T08:10:51;100304.28;;;10.86;48.65
61757;BME280;57225;61.460;24.060;2023-05-03T08:13:36;100302.31;;;10.34;50.48
61757;BME280;57225;61.460;24.060;2023-05-03T08:16:20;100279.22;;;10.19;50.98
61757;BME280;57225;61.460;24.060;2023-05-03T08:19:05;100288.34;;;10.16;51.15
61757;BME280;57225;61.460;24.060;2023-05-03T08:21:50;100309.50;;;10.67;52.58
61757;BME280;57225;61.460;24.060;2023-05-03T08:24:38;100302.69;;;10.85;50.80
61757;BME280;57225;61.460;24.060;2023-05-03T08:27:22;100292.66;;;11.20;51.31
61757;BME280;57225;61.460;24.060;2023-05-03T08:30:08;100310.91;;;11.42;44.03
61757;BME280;57225;61.460;24.060;2023-05-03T08:32:53;100303.44;;;11.07;47.79
61757;BME280;57225;61.460;24.060;2023-05-03T08:35:37;100311.41;;;11.09;46.38
61757;BME280;57225;61.460;24.060;2023-05-03T08:38:22;100309.28;;;11.55;45.79
61757;BME280;57225;61.460;24.060;2023-05-03T08:41:27;100282.97;;;11.56;41.45
61757;BME280;57225;61.460;24.060;2023-05-03T08:44:19;100314.47;;;11.53;44.05
61757;BME280;57225;61.460;24.060;2023-05-03T08:47:04;100312.31;;;11.93;44.85
61757;BME280;57225;61.460;24.060;2023-05-03T08:49:50;100304.91;;;12.27;47.37
61757;BME280;57225;61.460;24.060;2023-05-03T08:52:37;100310.13;;;12.77;45.96
61757;BME280;57225;61.460;24.060;2023-05-03T08:55:22;100315.03;;;12.59;44.36
61757;BME280;57225;61.460;24.060;2023-05-03T08:58:08;100308.84;;;12.33;44.06
61757;BME280;57225;61.460;24.060;2023-05-03T09:00:55;100308.53;;;12.24;44.64
61757;BME280;57225;61.460;24.060;2023-05-03T09:03:40;100305.16;;;12.95;47.83
61757;BME280;57225;61.460;24.060;2023-05-03T09:06:31;100317.44;;;13.46;45.18
61757;BME280;57225;61.460;24.060;2023-05-03T09:09:30;100306.69;;;14.01;40.70
61757;BME280;57225;61.460;24.060;2023-05-03T09:12:42;100318.84;;;13.23;43.45
61757;BME280;57225;61.460;24.060;2023-05-03T09:15:29;100307.09;;;10.72;46.95
61757;BME280;57225;61.460;24.060;2023-05-03T09:18:19;100313.38;;;10.05;50.43
61757;BME280;57225;61.460;24.060;2023-05-03T09:21:04;100302.19;;;9.84;48.19
61757;BME280;57225;61.460;24.060;2023-05-03T09:23:49;100313.38;;;10.05;47.90
61757;BME280;57225;61.460;24.060;2023-05-03T09:26:34;100319.84;;;10.66;46.77
61757;BME280;57225;61.460;24.060;2023-05-03T09:29:45;100307.69;;;11.54;44.98
61757;BME280;57225;61.460;24.060;2023-05-03T09:32:31;100312.16;;;12.14;43.19
61757;BME280;57225;61.460;24.060;2023-05-03T09:35:30;100311.66;;;12.81;44.07
61757;BME280;57225;61.460;24.060;2023-05-03T09:38:34;100316.25;;;13.77;39.13
61757;BME280;57225;61.460;24.060;2023-05-03T09:41:30;100335.41;;;14.36;37.54
61757;BME280;57225;61.460;24.060;2023-05-03T09:44:15;100336.44;;;14.22;37.15
61757;BME280;57225;61.460;24.060;2023-05-03T09:47:04;100322.22;;;12.63;35.33
61757;BME280;57225;61.460;24.060;2023-05-03T09:49:49;100336.13;;;12.15;37.13
61757;BME280;57225;61.460;24.060;2023-05-03T09:52:34;100341.00;;;12.63;41.40
61757;BME280;57225;61.460;24.060;2023-05-03T09:55:21;100341.63;;;13.63;40.64
61757;BME280;57225;61.460;24.060;2023-05-03T09:58:07;100337.66;;;14.48;38.04
61757;BME280;57225;61.460;24.060;2023-05-03T10:00:52;100328.53;;;14.14;35.83
61757;BME280;57225;61.460;24.060;2023-05-03T10:03:48;100325.44;;;14.35;36.07
61757;BME280;57225;61.460;24.060;2023-05-03T10:06:35;100337.34;;;13.10;40.14
61757;BME280;57225;61.460;24.060;2023-05-03T10:09:32;100342.16;;;12.10;42.56
61757;BME280;57225;61.460;24.060;2023-05-03T10:12:18;100342.13;;;10.59;45.41
61757;BME280;57225;61.460;24.060;2023-05-03T10:15:05;100337.69;;;11.15;44.43
61757;BME280;57225;61.460;24.060;2023-05-03T10:17:52;100346.09;;;10.83;45.23
61757;BME280;57225;61.460;24.060;2023-05-03T10:20:49;100352.47;;;11.05;44.71
61757;BME280;57225;61.460;24.060;2023-05-03T10:24:18;100345.16;;;11.60;45.22
61757;BME280;57225;61.460;24.060;2023-05-03T10:27:03;100338.00;;;11.45;45.81
61757;BME280;57225;61.460;24.060;2023-05-03T10:29:50;100337.34;;;10.77;44.14
61757;BME280;57225;61.460;24.060;2023-05-03T10:32:36;100337.34;;;10.84;45.27
61757;BME280;57225;61.460;24.060;2023-05-03T10:35:28;100344.53;;;10.71;46.06
61757;BME280;57225;61.460;24.060;2023-05-03T10:38:19;100349.31;;;10.60;45.67
61757;BME280;57225;61.460;24.060;2023-05-03T10:41:04;100333.34;;;11.00;43.31
61757;BME280;57225;61.460;24.060;2023-05-03T10:43:50;100342.50;;;10.22;43.11
61757;BME280;57225;61.460;24.060;2023-05-03T10:46:34;100344.03;;;10.13;45.04
61757;BME280;57225;61.460;24.060;2023-05-03T10:49:23;100346.78;;;9.98;43.55
61757;BME280;57225;61.460;24.060;2023-05-03T10:55:21;100334.97;;;12.09;41.15
61757;BME280;57225;61.460;24.060;2023-05-03T10:58:10;100331.75;;;12.66;41.85
61757;BME280;57225;61.460;24.060;2023-05-03T11:00:58;100347.41;;;13.04;40.36
61757;BME280;57225;61.460;24.060;2023-05-03T11:04:47;100350.69;;;14.04;38.98
61757;BME280;57225;61.460;24.060;2023-05-03T11:07:19;100345.16;;;13.67;36.13
61757;BME280;57225;61.460;24.060;2023-05-03T11:10:18;100337.19;;;13.32;33.64
61757;BME280;57225;61.460;24.060;2023-05-03T11:13:03;100348.47;;;13.58;38.04
61757;BME280;57225;61.460;24.060;2023-05-03T11:15:47;100359.16;;;13.33;36.07
61757;BME280;57225;61.460;24.060;2023-05-03T11:18:33;100345.13;;;12.92;39.31
61757;BME280;57225;61.460;24.060;2023-05-03T11:21:17;100345.56;;;12.87;41.60
61757;BME280;57225;61.460;24.060;2023-05-03T11:24:02;100338.59;;;12.06;38.51
61757;BME280;57225;61.460;24.060;2023-05-03T11:26:46;100320.03;;;12.33;39.65
61757;BME280;57225;61.460;24.060;2023-05-03T11:29:32;100329.34;;;13.16;38.98
61757;BME280;57225;61.460;24.060;2023-05-03T11:32:17;100336.47;;;13.58;37.69
61757;BME280;57225;61.460;24.060;2023-05-03T11:35:02;100351.31;;;14.46;37.10
61757;BME280;57225;61.460;24.060;2023-05-03T11:37:49;100347.50;;;13.72;34.88
61757;BME280;57225;61.460;24.060;2023-05-03T11:40:34;100345.34;;;14.14;36.56
61757;BME280;57225;61.460;24.060;2023-05-03T11:43:19;100349.09;;;14.34;35.44
61757;BME280;57225;61.460;24.060;2023-05-03T11:46:04;100337.09;;;14.30;35.47
61757;BME280;57225;61.460;24.060;2023-05-03T11:48:48;100356.84;;;13.24;37.77
61757;BME280;57225;61.460;24.060;2023-05-03T11:51:33;100372.56;;;12.60;38.67
61757;BME280;57225;61.460;24.060;2023-05-03T11:54:18;100395.75;;;11.77;39.24
61757;BME280;57225;61.460;24.060;2023-05-03T11:57:11;100433.63;;;10.22;40.81
61757;BME280;57225;61.460;24.060;2023-05-03T12:00:09;100424.81;;;9.37;45.09
61757;BME280;57225;61.460;24.060;2023-05-03T12:02:53;100393.78;;;9.31;45.52
61757;BME280;57225;61.460;24.060;2023-05-03T12:05:37;100432.16;;;9.66;47.56
61757;BME280;57225;61.460;24.060;2023-05-03T12:08:31;100410.09;;;9.36;53.18
61757;BME280;57225;61.460;24.060;2023-05-03T12:11:16;100421.09;;;9.18;54.10
61757;BME280;57225;61.460;24.060;2023-05-03T12:14:01;100436.97;;;9.14;56.46
61757;BME280;57225;61.460;24.060;2023-05-03T12:16:48;100431.97;;;8.86;54.78
61757;BME280;57225;61.460;24.060;2023-05-03T12:19:34;100422.59;;;8.58;55.19
61757;BME280;57225;61.460;24.060;2023-05-03T12:22:18;100421.34;;;8.96;56.93
61757;BME280;57225;61.460;24.060;2023-05-03T12:25:04;100417.94;;;9.23;46.73
61757;BME280;57225;61.460;24.060;2023-05-03T12:27:51;100395.63;;;9.78;49.59
61757;BME280;57225;61.460;24.060;2023-05-03T12:30:35;100415.50;;;9.73;48.19
61757;BME280;57225;61.460;24.060;2023-05-03T12:33:20;100404.72;;;9.64;47.98
61757;BME280;57225;61.460;24.060;2023-05-03T12:36:04;100415.16;;;9.85;48.84
61757;BME280;57225;61.460;24.060;2023-05-03T12:38:50;100417.91;;;9.82;49.14
61757;BME280;57225;61.460;24.060;2023-05-03T12:41:35;100415.41;;;9.59;48.61
61757;BME280;57225;61.460;24.060;2023-05-03T12:44:20;100425.56;;;9.30;50.60
61757;BME280;57225;61.460;24.060;2023-05-03T12:47:04;100429.75;;;9.03;50.94
61757;BME280;57225;61.460;24.060;2023-05-03T12:49:49;100440.66;;;8.81;49.83
61757;BME280;57225;61.460;24.060;2023-05-03T12:52:34;100436.19;;;9.17;51.04
61757;BME280;57225;61.460;24.060;2023-05-03T12:55:20;100447.00;;;9.29;51.11
61757;BME280;57225;61.460;24.060;2023-05-03T12:58:05;100452.81;;;9.68;52.22
61757;BME280;57225;61.460;24.060;2023-05-03T13:00:49;100461.91;;;8.60;53.07
61757;BME280;57225;61.460;24.060;2023-05-03T13:03:34;100458.81;;;7.72;55.82
61757;BME280;57225;61.460;24.060;2023-05-03T13:06:18;100502.41;;;7.45;60.65
61757;BME280;57225;61.460;24.060;2023-05-03T13:09:03;100494.34;;;7.36;58.93
61757;BME280;57225;61.460;24.060;2023-05-03T13:11:49;100483.56;;;7.31;59.88
61757;BME280;57225;61.460;24.060;2023-05-03T13:14:35;100458.31;;;7.36;60.95
61757;BME280;57225;61.460;24.060;2023-05-03T13:17:20;100459.00;;;7.56;61.55
61757;BME280;57225;61.460;24.060;2023-05-03T13:20:06;100453.91;;;7.61;59.09
61757;BME280;57225;61.460;24.060;2023-05-03T13:22:51;100450.34;;;8.21;57.61
61757;BME280;57225;61.460;24.060;2023-05-03T13:25:36;100448.31;;;8.51;59.17
61757;BME280;57225;61.460;24.060;2023-05-03T13:28:23;100447.47;;;8.87;58.83
61757;BME280;57225;61.460;24.060;2023-05-03T13:31:10;100436.56;;;9.12;57.42
61757;BME280;57225;61.460;24.060;2023-05-03T13:33:55;100454.03;;;9.71;57.46
61757;BME280;57225;61.460;24.060;2023-05-03T13:36:40;100440.69;;;10.05;54.40
61757;BME280;57225;61.460;24.060;2023-05-03T13:39:26;100420.22;;;9.07;54.86
61757;BME280;57225;61.460;24.060;2023-05-03T13:42:14;100445.75;;;8.72;53.74
61757;BME280;57225;61.460;24.060;2023-05-03T13:44:59;100462.56;;;8.16;56.83
61757;BME280;57225;61.460;24.060;2023-05-03T13:47:46;100465.88;;;7.95;57.96
61757;BME280;57225;61.460;24.060;2023-05-03T13:50:30;100485.81;;;7.75;61.57
61757;BME280;57225;61.460;24.060;2023-05-03T13:53:15;100466.31;;;6.69;63.78
61757;BME280;57225;61.460;24.060;2023-05-03T13:56:04;100484.75;;;6.84;64.89
61757;BME280;57225;61.460;24.060;2023-05-03T13:58:49;100495.63;;;6.93;64.70
61757;BME280;57225;61.460;24.060;2023-05-03T14:01:33;100498.56;;;7.04;66.28
61757;BME280;57225;61.460;24.060;2023-05-03T14:04:20;100495.75;;;7.00;66.01
61757;BME280;57225;61.460;24.060;2023-05-03T14:07:04;100501.03;;;6.86;67.85
61757;BME280;57225;61.460;24.060;2023-05-03T14:09:51;100489.31;;;6.96;68.61
61757;BME280;57225;61.460;24.060;2023-05-03T14:12:37;100495.34;;;7.24;68.91
61757;BME280;57225;61.460;24.060;2023-05-03T14:15:21;100482.19;;;7.18;67.65
61757;BME280;57225;61.460;24.060;2023-05-03T14:18:08;100504.47;;;7.25;68.96
61757;BME280;57225;61.460;24.060;2023-05-03T14:20:53;100395.88;;;6.25;70.03
61757;BME280;57225;61.460;24.060;2023-05-03T14:23:41;100506.38;;;6.98;69.55
61757;BME280;57225;61.460;24.060;2023-05-03T14:26:25;100511.19;;;7.01;70.06
61757;BME280;57225;61.460;24.060;2023-05-03T14:29:12;100497.28;;;7.20;69.98
61757;BME280;57225;61.460;24.060;2023-05-03T14:31:57;100507.16;;;7.44;68.54
61757;BME280;57225;61.460;24.060;2023-05-03T14:34:42;100512.84;;;7.28;68.36